Kezdőlap
METAR-TAF:

METAR-TAF

Repülőterek :

North Kingstown, Rhode Island, Amerikai Egyesült Államok

földrajzi szélesség: 41-36N, földrajzi hosszúság: 071-25W, magasság: 6 m

Jelenlegi meteorológiai megfigyelések

A jelentés 57 perccel ezelõtt készült, 16:50 UTC
Nyugat-délnyugati szél 13 kt
Hőmérséklet 11°C
Páratartalom 28%
Légköri nyomás 1021 hPa
Látótávolság: 16.1 km
Derült ég

METAR: KOQU 231650Z 24013KT 10SM SKC 11/M07 A3014

Idő: 12:47 (17:47 UTC)


TAF: hiányzik

Meteorológiai megfigyelések és előrejelzések több, mint 4000 repülőtéren (METAR és TAF jelentéseket).

A térképen piros és sárga pontok jelzik az elérhető meteorológiai állomásokat.

Mozgassa az egeret a pont fölött, hogy megjelenjen az állomás neve.

Azután kattintson az időjárási megfigyelések és előrejelzések megtekintéséhez.

A térkép megváltoztatása: kattintson a fekete keresztel jelölt zöld gombra ráközelítéshez, a vonallal jelölt zöld gombra távolításhoz, vagy a zöld nyilakra a szomszédos térképek eléréséhez.


METAR-TAF: